Buoy 62909

sailwx.info

Track history (hours):
 
Tides and Currents Weather Stations Pressure Air Temp Water Temp Dewpoint Dewpoint Depression Visibility Wind Speed Wind Dir Waves Ship Positions

Drifting buoy 62909

Last reported at 2015-Aug-28 16:01 UTC. Time now 2015-Aug-28 17:10 UTC.
Position N 38°38' E 000°45'.

Water temperature 27.6 ° C

Date/timePositionNaut miles runAvg speedWind from/ knotsBaromVisibWave heightAir tempDewpointWater temp
2015-Aug-28 16:01N 38°38' E 000°45'0 0.0 27.6
2015-Aug-28 15:59N 38°38' E 000°45'0 0.0
2015-Aug-28 14:54N 38°38' E 000°45'1 0.9 27.6
2015-Aug-28 14:11N 38°38' E 000°45'3 0.7 27.4
2015-Aug-28 08:52N 38°38' E 000°50'0 0.0
2015-Aug-28 08:00N 38°38' E 000°50'1 0.4 27.1
2015-Aug-28 06:16N 38°38' E 000°50'0 0.0 27.1
2015-Aug-28 05:15N 38°38' E 000°50'0 1.8 27.1
2015-Aug-28 05:10N 38°38' E 000°51'0 3.8 27.1
2015-Aug-28 05:03N 38°39' E 000°50'0 0.0
2015-Aug-28 04:42N 38°39' E 000°50'0 0.0 27.1
2015-Aug-28 04:35N 38°39' E 000°50'0 0.0 27.1
2015-Aug-28 04:31N 38°39' E 000°50'2 1.1 27.1
2015-Aug-28 02:53N 38°40' E 000°51'0 0.0 27.0
2015-Aug-28 01:12N 38°40' E 000°51'1 0.5 27.0
2015-Aug-27 23:02N 38°41' E 000°51'1 0.2 27.0
2015-Aug-27 19:45N 38°41' E 000°51'0 0.7 27.0
2015-Aug-27 19:06N 38°42' E 000°51'0 0.2 27.0
2015-Aug-27 18:03N 38°42' E 000°51'1 0.5 27.1
2015-Aug-27 16:53N 38°42' E 000°51'0 0.0 27.1
2015-Aug-27 15:10N 38°42' E 000°51'0 0.7 27.2
2015-Aug-27 15:05N 38°42' E 000°51'1 0.3 27.2
2015-Aug-27 12:46N 38°42' E 000°52'1 0.7 27.1
2015-Aug-27 10:51N 38°43' E 000°53'0 0.0
2015-Aug-27 10:04N 38°43' E 000°53'228.8 26.9
2015-Aug-27 10:00N 38°45' E 000°52'1 0.4 26.9
2015-Aug-27 07:02N 38°46' E 000°51'0 0.0 26.9
2015-Aug-27 06:46N 38°46' E 000°51'2 1.2 26.9
2015-Aug-27 05:06N 38°47' E 000°49'0 0.0 26.9
2015-Aug-27 04:59N 38°47' E 000°49'1 0.6
2015-Aug-27 03:00N 38°47' E 000°47'2 0.4 26.9
2015-Aug-26 21:49N 38°47' E 000°45'1 1.2 27.0
2015-Aug-26 20:54N 38°47' E 000°44'2 1.7 27.1
2015-Aug-26 19:59N 38°49' E 000°42'0 0.2 27.1
2015-Aug-26 17:56N 38°48' E 000°43'0 0.0 27.2
2015-Aug-26 17:00N 38°48' E 000°43'1 5.7 27.2
2015-Aug-26 16:49N 38°49' E 000°44'3 1.7 27.2
2015-Aug-26 15:15N 38°49' E 000°41'0 0.0 27.3
2015-Aug-26 15:04N 38°49' E 000°41'0 0.0 27.3
2015-Aug-26 14:45N 38°49' E 000°41'1 0.5 27.3
2015-Aug-26 12:58N 38°50' E 000°39'3158.5 27.2
2015-Aug-26 12:57N 38°49' E 000°36'2 0.4 27.2
2015-Aug-26 07:10N 38°49' E 000°33'0 0.0 26.9
2015-Aug-26 07:05N 38°49' E 000°33'0 0.4 26.9
2015-Aug-26 05:48N 38°49' E 000°33'1 0.6 26.9
2015-Aug-26 04:56N 38°49' E 000°32'217.3 26.9
2015-Aug-26 04:50N 38°48' E 000°30'0 0.0 26.9
2015-Aug-26 03:53N 38°48' E 000°30'0 0.0 26.9
2015-Aug-26 03:16N 38°48' E 000°30'1 8.0 26.9
2015-Aug-26 03:09N 38°47' E 000°29'3 0.5 26.9
2015-Aug-25 21:59N 38°48' E 000°26'0 0.1 26.9
2015-Aug-25 20:18N 38°48' E 000°26'2 9.6 27.0
2015-Aug-25 20:07N 38°48' E 000°24'0 0.0 27.0
2015-Aug-25 18:52N 38°48' E 000°24'0 0.0 27.1
2015-Aug-25 17:16N 38°48' E 000°24'014.7 26.7
2015-Aug-25 17:14N 38°48' E 000°24'1 2.5 26.7
2015-Aug-25 16:51N 38°47' E 000°23'1 0.3 26.7
2015-Aug-25 14:54N 38°47' E 000°23'1 0.6 26.9
2015-Aug-25 13:14N 38°48' E 000°22'1 0.6 26.9
2015-Aug-25 11:33N 38°48' E 000°21'2 1.2 26.4
2015-Aug-25 09:58N 38°49' E 000°19'0 0.5 26.4
2015-Aug-25 09:04N 38°49' E 000°18'1 0.5 26.4
2015-Aug-25 06:18N 38°49' E 000°17'0 0.0 26.3
2015-Aug-25 05:53N 38°49' E 000°17'1 1.8 26.4
2015-Aug-25 05:04N 38°48' E 000°19'0 0.0 26.4
2015-Aug-25 04:36N 38°48' E 000°19'0 0.0 26.4
2015-Aug-25 04:05N 38°48' E 000°19'1 9.4 26.4
2015-Aug-25 04:01N 38°48' E 000°18'0 0.7 26.4
2015-Aug-25 03:21N 38°47' E 000°18'0 0.0 26.4
2015-Aug-25 01:50N 38°47' E 000°18'0 0.9 26.4
2015-Aug-25 01:46N 38°47' E 000°18'1 0.3 26.4
2015-Aug-24 20:49N 38°46' E 000°17'1 0.9 26.5
2015-Aug-24 19:55N 38°46' E 000°17'0 0.1 26.6
2015-Aug-24 15:08N 38°46' E 000°16'1 0.2 26.8
2015-Aug-24 11:06N 38°46' E 000°16'2 0.6 26.6
2015-Aug-24 07:57N 38°46' E 000°13'0 0.0 26.4
2015-Aug-24 06:51N 38°46' E 000°13'2 1.7 26.4
2015-Aug-24 05:56N 38°48' E 000°15'1 1.0 26.4
2015-Aug-24 05:13N 38°48' E 000°15'0 0.0 26.5
2015-Aug-24 04:15N 38°48' E 000°15'1 0.5
2015-Aug-24 01:57N 38°49' E 000°14'0 0.0 26.6
2015-Aug-23 22:48N 38°49' E 000°14'0 0.0 26.8
2015-Aug-23 21:57N 38°49' E 000°14'0 0.5 26.8
2015-Aug-23 21:01N 38°49' E 000°15'0 0.1 26.9
2015-Aug-23 18:02N 38°49' E 000°15'1 0.5 27.1
2015-Aug-23 15:53N 38°49' E 000°14'2 0.3 27.4
2015-Aug-23 08:56N 38°51' E 000°13'0 0.3 27.0
2015-Aug-23 08:02N 38°52' E 000°13'1 0.3 26.9
2015-Aug-23 06:08N 38°51' E 000°13'0 0.4 26.9
2015-Aug-23 05:00N 38°51' E 000°14'0 0.5 27.0
2015-Aug-23 03:57N 38°51' E 000°13'3 0.3 27.1
2015-Aug-22 19:59N 38°51' E 000°17'0 0.0 27.2
2015-Aug-22 19:47N 38°51' E 000°17'0 0.1 27.2
2015-Aug-22 16:03N 38°51' E 000°17'0 7.7 27.2
2015-Aug-22 16:01N 38°51' E 000°17'0 0.5 27.2
2015-Aug-22 15:07N 38°51' E 000°16'1 0.3 27.2
2015-Aug-22 12:02N 38°50' E 000°16'0 0.0 27.1
2015-Aug-22 11:04N 38°50' E 000°16'1 7.9 26.9
2015-Aug-22 10:57N 38°51' E 000°15'0 0.0
2015-Aug-22 10:10N 38°51' E 000°15'0 1.9 26.8
2015-Aug-22 10:04N 38°51' E 000°15'1 0.6 26.8
2015-Aug-22 07:57N 38°50' E 000°16'0 0.0 26.6
2015-Aug-22 07:09N 38°50' E 000°16'0 1.8 26.6
2015-Aug-22 07:04N 38°50' E 000°16'1 0.3 26.6
2015-Aug-22 04:04N 38°49' E 000°17'0 0.0 26.7
2015-Aug-22 03:57N 38°49' E 000°17'1 0.1 26.7
2015-Aug-21 21:51N 38°49' E 000°17'0 0.3 26.8
2015-Aug-21 20:55N 38°49' E 000°17'0 0.4
2015-Aug-21 20:03N 38°48' E 000°16'0 0.2
2015-Aug-21 18:53N 38°49' E 000°16'1 1.0 26.8
2015-Aug-21 17:58N 38°48' E 000°17'2 2.8 26.8
2015-Aug-21 17:13N 38°50' E 000°18'2 0.5 26.8
2015-Aug-21 13:59N 38°50' E 000°15'0 0.3 26.9
2015-Aug-21 12:14N 38°50' E 000°16'0 0.3 27.0
2015-Aug-21 12:05N 38°50' E 000°16'2 0.3 27.0
2015-Aug-21 05:54N 38°52' E 000°15'0 0.0 26.6
2015-Aug-21 05:05N 38°52' E 000°15'0 0.3 26.6
2015-Aug-21 04:11N 38°52' E 000°15'1 0.1 26.6
2015-Aug-20 22:07N 38°52' E 000°15'0 0.1 26.7
2015-Aug-20 18:12N 38°53' E 000°16'0 0.0 26.8
2015-Aug-20 17:51N 38°53' E 000°16'0 0.0 26.9
2015-Aug-20 17:41N 38°53' E 000°16'0 0.1 26.9
2015-Aug-20 15:50N 38°53' E 000°15'1 0.7 26.9
2015-Aug-20 14:11N 38°54' E 000°15'1 0.3 26.9
2015-Aug-20 10:51N 38°55' E 000°14'1 0.8 26.9
2015-Aug-20 10:06N 38°55' E 000°14'0 0.0 26.9
2015-Aug-20 09:06N 38°55' E 000°14'1 0.8 26.8
2015-Aug-20 07:58N 38°56' E 000°13'0 0.1 26.6
2015-Aug-20 05:34N 38°56' E 000°13'0 0.7 26.6
2015-Aug-20 05:03N 38°56' E 000°13'0 0.2 26.6
2015-Aug-20 02:46N 38°56' E 000°12'2 0.3 26.6
2015-Aug-19 20:51N 38°58' E 000°11'1 0.9 26.9
2015-Aug-19 19:57N 38°59' E 000°11'0 0.0 26.9
2015-Aug-19 19:55N 38°59' E 000°11'1 0.3 26.9
2015-Aug-19 18:05N 38°59' E 000°11'2 0.9 26.9
2015-Aug-19 16:01N 39°00' E 000°09'0 0.0 26.9
2015-Aug-19 14:59N 39°00' E 000°09'1 0.3 26.9
2015-Aug-19 11:08N 39°01' E 000°09'1 0.3 26.7
2015-Aug-19 06:58N 39°02' E 000°08'0 1.7 26.7
2015-Aug-19 06:53N 39°02' E 000°08'0 4.5 26.7
2015-Aug-19 06:48N 39°02' E 000°08'0 0.0 26.7
2015-Aug-19 06:37N 39°02' E 000°08'0 0.0 26.7
2015-Aug-19 06:07N 39°02' E 000°08'1 0.6 26.7
2015-Aug-19 05:13N 39°03' E 000°07'0 0.0 26.7
2015-Aug-19 05:01N 39°03' E 000°07'2 0.7 26.7
2015-Aug-19 02:53N 39°04' E 000°06'2 1.2 26.7
2015-Aug-19 01:10N 39°06' E 000°05'0 0.0 26.7
2015-Aug-18 22:52N 39°06' E 000°05'0 0.0 26.7
2015-Aug-18 22:01N 39°06' E 000°05'0 0.0 26.7
2015-Aug-18 21:03N 39°06' E 000°05'2 0.4 26.8
2015-Aug-18 16:53N 39°08' E 000°04'   26.9
Track history (hours):
 
Tides and Currents Weather Stations Pressure Air Temp Water Temp Dewpoint Dewpoint Depression Visibility Wind Speed Wind Dir Waves Ship Positions

Drifting buoy 62909

Last reported at 2015-Aug-28 16:01 UTC. Time now 2015-Aug-28 17:10 UTC.
Position N 38°38' E 000°45'.

Water temperature 27.6 ° C

Date/timePositionNaut miles runAvg speedWind from/ knotsBaromVisibWave heightAir tempDewpointWater temp
2015-Aug-28 16:01N 38°38' E 000°45'0 0.0 27.6
2015-Aug-28 15:59N 38°38' E 000°45'0 0.0
2015-Aug-28 14:54N 38°38' E 000°45'1 0.9 27.6
2015-Aug-28 14:11N 38°38' E 000°45'3 0.7 27.4
2015-Aug-28 08:52N 38°38' E 000°50'0 0.0
2015-Aug-28 08:00N 38°38' E 000°50'1 0.4 27.1
2015-Aug-28 06:16N 38°38' E 000°50'0 0.0 27.1
2015-Aug-28 05:15N 38°38' E 000°50'0 1.8 27.1
2015-Aug-28 05:10N 38°38' E 000°51'0 3.8 27.1
2015-Aug-28 05:03N 38°39' E 000°50'0 0.0
2015-Aug-28 04:42N 38°39' E 000°50'0 0.0 27.1
2015-Aug-28 04:35N 38°39' E 000°50'0 0.0 27.1
2015-Aug-28 04:31N 38°39' E 000°50'2 1.1 27.1
2015-Aug-28 02:53N 38°40' E 000°51'0 0.0 27.0
2015-Aug-28 01:12N 38°40' E 000°51'1 0.5 27.0
2015-Aug-27 23:02N 38°41' E 000°51'1 0.2 27.0
2015-Aug-27 19:45N 38°41' E 000°51'0 0.7 27.0
2015-Aug-27 19:06N 38°42' E 000°51'0 0.2 27.0
2015-Aug-27 18:03N 38°42' E 000°51'1 0.5 27.1
2015-Aug-27 16:53N 38°42' E 000°51'0 0.0 27.1
2015-Aug-27 15:10N 38°42' E 000°51'0 0.7 27.2
2015-Aug-27 15:05N 38°42' E 000°51'1 0.3 27.2
2015-Aug-27 12:46N 38°42' E 000°52'1 0.7 27.1
2015-Aug-27 10:51N 38°43' E 000°53'0 0.0
2015-Aug-27 10:04N 38°43' E 000°53'228.8 26.9
2015-Aug-27 10:00N 38°45' E 000°52'1 0.4 26.9
2015-Aug-27 07:02N 38°46' E 000°51'0 0.0 26.9
2015-Aug-27 06:46N 38°46' E 000°51'2 1.2 26.9
2015-Aug-27 05:06N 38°47' E 000°49'0 0.0 26.9
2015-Aug-27 04:59N 38°47' E 000°49'1 0.6
2015-Aug-27 03:00N 38°47' E 000°47'2 0.4 26.9
2015-Aug-26 21:49N 38°47' E 000°45'1 1.2 27.0
2015-Aug-26 20:54N 38°47' E 000°44'2 1.7 27.1
2015-Aug-26 19:59N 38°49' E 000°42'0 0.2 27.1
2015-Aug-26 17:56N 38°48' E 000°43'0 0.0 27.2
2015-Aug-26 17:00N 38°48' E 000°43'1 5.7 27.2
2015-Aug-26 16:49N 38°49' E 000°44'3 1.7 27.2
2015-Aug-26 15:15N 38°49' E 000°41'0 0.0 27.3
2015-Aug-26 15:04N 38°49' E 000°41'0 0.0 27.3
2015-Aug-26 14:45N 38°49' E 000°41'1 0.5 27.3
2015-Aug-26 12:58N 38°50' E 000°39'3158.5 27.2
2015-Aug-26 12:57N 38°49' E 000°36'2 0.4 27.2
2015-Aug-26 07:10N 38°49' E 000°33'0 0.0 26.9
2015-Aug-26 07:05N 38°49' E 000°33'0 0.4 26.9
2015-Aug-26 05:48N 38°49' E 000°33'1 0.6 26.9
2015-Aug-26 04:56N 38°49' E 000°32'217.3 26.9
2015-Aug-26 04:50N 38°48' E 000°30'0 0.0 26.9
2015-Aug-26 03:53N 38°48' E 000°30'0 0.0 26.9
2015-Aug-26 03:16N 38°48' E 000°30'1 8.0 26.9
2015-Aug-26 03:09N 38°47' E 000°29'3 0.5 26.9
2015-Aug-25 21:59N 38°48' E 000°26'0 0.1 26.9
2015-Aug-25 20:18N 38°48' E 000°26'2 9.6 27.0
2015-Aug-25 20:07N 38°48' E 000°24'0 0.0 27.0
2015-Aug-25 18:52N 38°48' E 000°24'0 0.0 27.1
2015-Aug-25 17:16N 38°48' E 000°24'014.7 26.7
2015-Aug-25 17:14N 38°48' E 000°24'1 2.5 26.7
2015-Aug-25 16:51N 38°47' E 000°23'1 0.3 26.7
2015-Aug-25 14:54N 38°47' E 000°23'1 0.6 26.9
2015-Aug-25 13:14N 38°48' E 000°22'1 0.6 26.9
2015-Aug-25 11:33N 38°48' E 000°21'2 1.2 26.4
2015-Aug-25 09:58N 38°49' E 000°19'0 0.5 26.4
2015-Aug-25 09:04N 38°49' E 000°18'1 0.5 26.4
2015-Aug-25 06:18N 38°49' E 000°17'0 0.0 26.3
2015-Aug-25 05:53N 38°49' E 000°17'1 1.8 26.4
2015-Aug-25 05:04N 38°48' E 000°19'0 0.0 26.4
2015-Aug-25 04:36N 38°48' E 000°19'0 0.0 26.4
2015-Aug-25 04:05N 38°48' E 000°19'1 9.4 26.4
2015-Aug-25 04:01N 38°48' E 000°18'0 0.7 26.4
2015-Aug-25 03:21N 38°47' E 000°18'0 0.0 26.4
2015-Aug-25 01:50N 38°47' E 000°18'0 0.9 26.4
2015-Aug-25 01:46N 38°47' E 000°18'1 0.3 26.4
2015-Aug-24 20:49N 38°46' E 000°17'1 0.9 26.5
2015-Aug-24 19:55N 38°46' E 000°17'0 0.1 26.6
2015-Aug-24 15:08N 38°46' E 000°16'1 0.2 26.8
2015-Aug-24 11:06N 38°46' E 000°16'2 0.6 26.6
2015-Aug-24 07:57N 38°46' E 000°13'0 0.0 26.4
2015-Aug-24 06:51N 38°46' E 000°13'2 1.7 26.4
2015-Aug-24 05:56N 38°48' E 000°15'1 1.0 26.4
2015-Aug-24 05:13N 38°48' E 000°15'0 0.0 26.5
2015-Aug-24 04:15N 38°48' E 000°15'1 0.5
2015-Aug-24 01:57N 38°49' E 000°14'0 0.0 26.6
2015-Aug-23 22:48N 38°49' E 000°14'0 0.0 26.8
2015-Aug-23 21:57N 38°49' E 000°14'0 0.5 26.8
2015-Aug-23 21:01N 38°49' E 000°15'0 0.1 26.9
2015-Aug-23 18:02N 38°49' E 000°15'1 0.5 27.1
2015-Aug-23 15:53N 38°49' E 000°14'2 0.3 27.4
2015-Aug-23 08:56N 38°51' E 000°13'0 0.3 27.0
2015-Aug-23 08:02N 38°52' E 000°13'1 0.3 26.9
2015-Aug-23 06:08N 38°51' E 000°13'0 0.4 26.9
2015-Aug-23 05:00N 38°51' E 000°14'0 0.5 27.0
2015-Aug-23 03:57N 38°51' E 000°13'3 0.3 27.1
2015-Aug-22 19:59N 38°51' E 000°17'0 0.0 27.2
2015-Aug-22 19:47N 38°51' E 000°17'0 0.1 27.2
2015-Aug-22 16:03N 38°51' E 000°17'0 7.7 27.2
2015-Aug-22 16:01N 38°51' E 000°17'0 0.5 27.2
2015-Aug-22 15:07N 38°51' E 000°16'1 0.3 27.2
2015-Aug-22 12:02N 38°50' E 000°16'0 0.0 27.1
2015-Aug-22 11:04N 38°50' E 000°16'1 7.9 26.9
2015-Aug-22 10:57N 38°51' E 000°15'0 0.0
2015-Aug-22 10:10N 38°51' E 000°15'0 1.9 26.8
2015-Aug-22 10:04N 38°51' E 000°15'1 0.6 26.8
2015-Aug-22 07:57N 38°50' E 000°16'0 0.0 26.6
2015-Aug-22 07:09N 38°50' E 000°16'0 1.8 26.6
2015-Aug-22 07:04N 38°50' E 000°16'1 0.3 26.6
2015-Aug-22 04:04N 38°49' E 000°17'0 0.0 26.7
2015-Aug-22 03:57N 38°49' E 000°17'1 0.1 26.7
2015-Aug-21 21:51N 38°49' E 000°17'0 0.3 26.8
2015-Aug-21 20:55N 38°49' E 000°17'0 0.4
2015-Aug-21 20:03N 38°48' E 000°16'0 0.2
2015-Aug-21 18:53N 38°49' E 000°16'1 1.0 26.8
2015-Aug-21 17:58N 38°48' E 000°17'2 2.8 26.8
2015-Aug-21 17:13N 38°50' E 000°18'2 0.5 26.8
2015-Aug-21 13:59N 38°50' E 000°15'0 0.3 26.9
2015-Aug-21 12:14N 38°50' E 000°16'0 0.3 27.0
2015-Aug-21 12:05N 38°50' E 000°16'2 0.3 27.0
2015-Aug-21 05:54N 38°52' E 000°15'0 0.0 26.6
2015-Aug-21 05:05N 38°52' E 000°15'0 0.3 26.6
2015-Aug-21 04:11N 38°52' E 000°15'1 0.1 26.6
2015-Aug-20 22:07N 38°52' E 000°15'0 0.1 26.7
2015-Aug-20 18:12N 38°53' E 000°16'0 0.0 26.8
2015-Aug-20 17:51N 38°53' E 000°16'0 0.0 26.9
2015-Aug-20 17:41N 38°53' E 000°16'0 0.1 26.9
2015-Aug-20 15:50N 38°53' E 000°15'1 0.7 26.9
2015-Aug-20 14:11N 38°54' E 000°15'1 0.3 26.9
2015-Aug-20 10:51N 38°55' E 000°14'1 0.8 26.9
2015-Aug-20 10:06N 38°55' E 000°14'0 0.0 26.9
2015-Aug-20 09:06N 38°55' E 000°14'1 0.8 26.8
2015-Aug-20 07:58N 38°56' E 000°13'0 0.1 26.6
2015-Aug-20 05:34N 38°56' E 000°13'0 0.7 26.6
2015-Aug-20 05:03N 38°56' E 000°13'0 0.2 26.6
2015-Aug-20 02:46N 38°56' E 000°12'2 0.3 26.6
2015-Aug-19 20:51N 38°58' E 000°11'1 0.9 26.9
2015-Aug-19 19:57N 38°59' E 000°11'0 0.0 26.9
2015-Aug-19 19:55N 38°59' E 000°11'1 0.3 26.9
2015-Aug-19 18:05N 38°59' E 000°11'2 0.9 26.9
2015-Aug-19 16:01N 39°00' E 000°09'0 0.0 26.9
2015-Aug-19 14:59N 39°00' E 000°09'1 0.3 26.9
2015-Aug-19 11:08N 39°01' E 000°09'1 0.3 26.7
2015-Aug-19 06:58N 39°02' E 000°08'0 1.7 26.7
2015-Aug-19 06:53N 39°02' E 000°08'0 4.5 26.7
2015-Aug-19 06:48N 39°02' E 000°08'0 0.0 26.7
2015-Aug-19 06:37N 39°02' E 000°08'0 0.0 26.7
2015-Aug-19 06:07N 39°02' E 000°08'1 0.6 26.7
2015-Aug-19 05:13N 39°03' E 000°07'0 0.0 26.7
2015-Aug-19 05:01N 39°03' E 000°07'2 0.7 26.7
2015-Aug-19 02:53N 39°04' E 000°06'2 1.2 26.7
2015-Aug-19 01:10N 39°06' E 000°05'0 0.0 26.7
2015-Aug-18 22:52N 39°06' E 000°05'0 0.0 26.7
2015-Aug-18 22:01N 39°06' E 000°05'0 0.0 26.7
2015-Aug-18 21:03N 39°06' E 000°05'2 0.4 26.8
2015-Aug-18 16:53N 39°08' E 000°04'   26.9

Dump ship's entire track history